Terminal Aerodrome Forecast
Issued by NWS Springfield, MO

Home | Current Version | Previous Version | Text Only | Print | Product List | Glossary On
Versions: 1 2 3 4 5 6 7 8 9 10 11 12 13 14 15 16 17 18 19 20 21 22 23 24 25
000
FTUS43 KSGF 190525
TAFSGF
TAF
KSGF 190525Z 1906/2006 18024G33KT 4SM -RA BR OVC008 WS020/21055KT
     FM191000 18023G32KT P6SM -SHRA OVC015 WS020/21050KT
     FM191300 18023G32KT P6SM -SHRA OVC015 WS020/21050KT
     FM191800 19025G35KT P6SM -SHRA OVC015
     FM200100 18018G28KT P6SM -SHRA OVC020 WS020/20045KT=

USA.gov is the U.S. government's official web portal to all federal, state and local government web resources and services.